sensor_id;sensor_type;location;lat;lon;timestamp;P1;durP1;ratioP1;P2;durP2;ratioP2
32080;SDS011;18593;51.426;7.030;2022-10-17T00:00:46;9.02;;;4.65;;
32080;SDS011;18593;51.426;7.030;2022-10-17T00:03:14;8.85;;;4.43;;
32080;SDS011;18593;51.426;7.030;2022-10-17T00:05:42;6.88;;;4.93;;
32080;SDS011;18593;51.426;7.030;2022-10-17T00:08:10;9.75;;;5.93;;
32080;SDS011;18593;51.426;7.030;2022-10-17T00:10:38;9.30;;;5.25;;
32080;SDS011;18593;51.426;7.030;2022-10-17T00:13:05;8.90;;;4.95;;
32080;SDS011;18593;51.426;7.030;2022-10-17T00:15:32;12.85;;;5.97;;
32080;SDS011;18593;51.426;7.030;2022-10-17T00:18:00;10.35;;;6.10;;
32080;SDS011;18593;51.426;7.030;2022-10-17T00:20:27;10.55;;;5.43;;
32080;SDS011;18593;51.426;7.030;2022-10-17T00:22:56;11.93;;;6.38;;
32080;SDS011;18593;51.426;7.030;2022-10-17T00:25:23;9.77;;;6.38;;
32080;SDS011;18593;51.426;7.030;2022-10-17T00:27:50;10.45;;;6.15;;
32080;SDS011;18593;51.426;7.030;2022-10-17T00:30:17;10.13;;;6.22;;
32080;SDS011;18593;51.426;7.030;2022-10-17T00:32:44;8.80;;;6.53;;
32080;SDS011;18593;51.426;7.030;2022-10-17T00:35:12;10.13;;;6.25;;
32080;SDS011;18593;51.426;7.030;2022-10-17T00:37:40;10.10;;;6.95;;
32080;SDS011;18593;51.426;7.030;2022-10-17T00:40:07;14.68;;;7.45;;
32080;SDS011;18593;51.426;7.030;2022-10-17T00:42:35;13.23;;;6.75;;
32080;SDS011;18593;51.426;7.030;2022-10-17T00:45:05;12.50;;;7.88;;
32080;SDS011;18593;51.426;7.030;2022-10-17T00:47:46;13.13;;;7.13;;
32080;SDS011;18593;51.426;7.030;2022-10-17T00:50:16;14.33;;;6.73;;
32080;SDS011;18593;51.426;7.030;2022-10-17T00:52:43;11.85;;;6.68;;
32080;SDS011;18593;51.426;7.030;2022-10-17T00:55:13;9.48;;;6.50;;
32080;SDS011;18593;51.426;7.030;2022-10-17T00:57:42;12.13;;;6.93;;
32080;SDS011;18593;51.426;7.030;2022-10-17T01:00:11;9.45;;;6.93;;
32080;SDS011;18593;51.426;7.030;2022-10-17T01:02:40;11.65;;;6.88;;
32080;SDS011;18593;51.426;7.030;2022-10-17T01:05:07;12.57;;;7.38;;
32080;SDS011;18593;51.426;7.030;2022-10-17T01:07:36;18.50;;;7.97;;
32080;SDS011;18593;51.426;7.030;2022-10-17T01:10:04;14.63;;;7.35;;
32080;SDS011;18593;51.426;7.030;2022-10-17T01:12:35;13.70;;;6.80;;
32080;SDS011;18593;51.426;7.030;2022-10-17T01:15:08;9.25;;;6.38;;
32080;SDS011;18593;51.426;7.030;2022-10-17T01:17:42;12.32;;;7.40;;
32080;SDS011;18593;51.426;7.030;2022-10-17T01:20:31;10.10;;;6.88;;
32080;SDS011;18593;51.426;7.030;2022-10-17T01:23:29;11.98;;;6.60;;
32080;SDS011;18593;51.426;7.030;2022-10-17T01:26:15;11.55;;;6.85;;
32080;SDS011;18593;51.426;7.030;2022-10-17T01:28:55;11.43;;;6.95;;
32080;SDS011;18593;51.426;7.030;2022-10-17T01:31:35;8.63;;;6.45;;
32080;SDS011;18593;51.426;7.030;2022-10-17T01:34:06;13.23;;;6.93;;
32080;SDS011;18593;51.426;7.030;2022-10-17T01:36:38;14.48;;;7.25;;
32080;SDS011;18593;51.426;7.030;2022-10-17T01:39:12;12.15;;;6.45;;
32080;SDS011;18593;51.426;7.030;2022-10-17T01:41:42;10.75;;;6.85;;
32080;SDS011;18593;51.426;7.030;2022-10-17T01:44:13;10.57;;;6.40;;
32080;SDS011;18593;51.426;7.030;2022-10-17T01:46:44;14.75;;;7.40;;
32080;SDS011;18593;51.426;7.030;2022-10-17T01:49:12;14.85;;;6.93;;
32080;SDS011;18593;51.426;7.030;2022-10-17T01:51:42;10.43;;;7.03;;
32080;SDS011;18593;51.426;7.030;2022-10-17T01:54:12;13.65;;;7.63;;
32080;SDS011;18593;51.426;7.030;2022-10-17T01:56:41;14.15;;;6.53;;
32080;SDS011;18593;51.426;7.030;2022-10-17T01:59:10;9.68;;;5.90;;
32080;SDS011;18593;51.426;7.030;2022-10-17T02:01:39;11.95;;;6.57;;
32080;SDS011;18593;51.426;7.030;2022-10-17T02:04:09;15.13;;;6.93;;
32080;SDS011;18593;51.426;7.030;2022-10-17T02:06:37;11.38;;;6.68;;
32080;SDS011;18593;51.426;7.030;2022-10-17T02:09:19;11.48;;;6.72;;
32080;SDS011;18593;51.426;7.030;2022-10-17T02:11:49;9.25;;;6.18;;
32080;SDS011;18593;51.426;7.030;2022-10-17T02:14:24;10.00;;;6.00;;
32080;SDS011;18593;51.426;7.030;2022-10-17T02:16:59;8.95;;;6.65;;
32080;SDS011;18593;51.426;7.030;2022-10-17T02:19:38;11.75;;;6.15;;
32080;SDS011;18593;51.426;7.030;2022-10-17T02:22:15;14.27;;;7.03;;
32080;SDS011;18593;51.426;7.030;2022-10-17T02:24:46;10.45;;;6.65;;
32080;SDS011;18593;51.426;7.030;2022-10-17T02:27:20;16.90;;;6.03;;
32080;SDS011;18593;51.426;7.030;2022-10-17T02:29:53;13.77;;;6.40;;
32080;SDS011;18593;51.426;7.030;2022-10-17T02:32:25;11.65;;;6.78;;
32080;SDS011;18593;51.426;7.030;2022-10-17T02:34:57;10.30;;;5.93;;
32080;SDS011;18593;51.426;7.030;2022-10-17T02:37:27;9.52;;;6.63;;
32080;SDS011;18593;51.426;7.030;2022-10-17T02:39:55;10.60;;;6.57;;
32080;SDS011;18593;51.426;7.030;2022-10-17T02:42:23;13.10;;;6.10;;
32080;SDS011;18593;51.426;7.030;2022-10-17T02:44:51;10.95;;;6.97;;
32080;SDS011;18593;51.426;7.030;2022-10-17T02:47:21;12.73;;;7.25;;
32080;SDS011;18593;51.426;7.030;2022-10-17T02:52:21;10.98;;;6.88;;
32080;SDS011;18593;51.426;7.030;2022-10-17T02:54:53;12.27;;;7.05;;
32080;SDS011;18593;51.426;7.030;2022-10-17T02:57:24;15.73;;;7.00;;
32080;SDS011;18593;51.426;7.030;2022-10-17T02:59:54;9.73;;;6.70;;
32080;SDS011;18593;51.426;7.030;2022-10-17T03:02:22;13.38;;;6.88;;
32080;SDS011;18593;51.426;7.030;2022-10-17T03:04:48;10.40;;;6.32;;
32080;SDS011;18593;51.426;7.030;2022-10-17T03:07:15;10.45;;;7.28;;
32080;SDS011;18593;51.426;7.030;2022-10-17T03:09:44;11.18;;;6.80;;
32080;SDS011;18593;51.426;7.030;2022-10-17T03:12:11;10.30;;;6.30;;
32080;SDS011;18593;51.426;7.030;2022-10-17T03:14:38;11.75;;;6.30;;
32080;SDS011;18593;51.426;7.030;2022-10-17T03:17:05;13.10;;;6.07;;
32080;SDS011;18593;51.426;7.030;2022-10-17T03:19:32;11.63;;;7.05;;
32080;SDS011;18593;51.426;7.030;2022-10-17T03:21:59;11.07;;;6.75;;
32080;SDS011;18593;51.426;7.030;2022-10-17T03:24:25;15.73;;;6.10;;
32080;SDS011;18593;51.426;7.030;2022-10-17T03:26:54;11.50;;;6.60;;
32080;SDS011;18593;51.426;7.030;2022-10-17T03:29:21;13.23;;;6.68;;
32080;SDS011;18593;51.426;7.030;2022-10-17T03:31:48;10.07;;;6.28;;
32080;SDS011;18593;51.426;7.030;2022-10-17T03:34:15;9.00;;;5.63;;
32080;SDS011;18593;51.426;7.030;2022-10-17T03:36:43;10.05;;;6.43;;
32080;SDS011;18593;51.426;7.030;2022-10-17T03:39:10;10.73;;;6.50;;
32080;SDS011;18593;51.426;7.030;2022-10-17T03:41:37;7.75;;;5.85;;
32080;SDS011;18593;51.426;7.030;2022-10-17T03:44:05;11.45;;;5.85;;
32080;SDS011;18593;51.426;7.030;2022-10-17T03:46:32;8.93;;;6.03;;
32080;SDS011;18593;51.426;7.030;2022-10-17T03:48:59;11.57;;;6.50;;
32080;SDS011;18593;51.426;7.030;2022-10-17T03:51:27;10.65;;;6.50;;
32080;SDS011;18593;51.426;7.030;2022-10-17T03:54:00;13.90;;;6.45;;
32080;SDS011;18593;51.426;7.030;2022-10-17T03:56:27;10.30;;;6.47;;
32080;SDS011;18593;51.426;7.030;2022-10-17T03:59:03;9.48;;;5.78;;
32080;SDS011;18593;51.426;7.030;2022-10-17T04:01:34;10.98;;;6.30;;
32080;SDS011;18593;51.426;7.030;2022-10-17T04:04:02;12.57;;;6.35;;
32080;SDS011;18593;51.426;7.030;2022-10-17T04:06:32;12.02;;;6.60;;
32080;SDS011;18593;51.426;7.030;2022-10-17T04:08:59;15.52;;;5.88;;
32080;SDS011;18593;51.426;7.030;2022-10-17T04:11:33;11.30;;;6.43;;
32080;SDS011;18593;51.426;7.030;2022-10-17T04:14:02;14.45;;;6.20;;
32080;SDS011;18593;51.426;7.030;2022-10-17T04:16:29;14.18;;;6.47;;
32080;SDS011;18593;51.426;7.030;2022-10-17T04:19:04;10.75;;;6.32;;
32080;SDS011;18593;51.426;7.030;2022-10-17T04:21:38;8.45;;;6.20;;
32080;SDS011;18593;51.426;7.030;2022-10-17T04:24:07;13.40;;;6.68;;
32080;SDS011;18593;51.426;7.030;2022-10-17T04:26:44;10.73;;;6.05;;
32080;SDS011;18593;51.426;7.030;2022-10-17T04:29:13;11.10;;;5.90;;
32080;SDS011;18593;51.426;7.030;2022-10-17T04:31:42;12.35;;;6.18;;
32080;SDS011;18593;51.426;7.030;2022-10-17T04:34:17;13.35;;;6.32;;
32080;SDS011;18593;51.426;7.030;2022-10-17T04:36:44;9.70;;;5.88;;
32080;SDS011;18593;51.426;7.030;2022-10-17T04:39:12;13.68;;;6.22;;
32080;SDS011;18593;51.426;7.030;2022-10-17T04:41:39;13.23;;;8.43;;
32080;SDS011;18593;51.426;7.030;2022-10-17T04:44:08;19.27;;;9.23;;
32080;SDS011;18593;51.426;7.030;2022-10-17T04:46:39;18.17;;;8.95;;
32080;SDS011;18593;51.426;7.030;2022-10-17T04:49:06;14.77;;;8.10;;
32080;SDS011;18593;51.426;7.030;2022-10-17T04:51:36;12.98;;;7.43;;
32080;SDS011;18593;51.426;7.030;2022-10-17T04:54:17;11.82;;;6.90;;
32080;SDS011;18593;51.426;7.030;2022-10-17T04:59:15;10.77;;;7.00;;
32080;SDS011;18593;51.426;7.030;2022-10-17T05:01:43;9.27;;;6.60;;
32080;SDS011;18593;51.426;7.030;2022-10-17T05:04:11;11.48;;;7.45;;
32080;SDS011;18593;51.426;7.030;2022-10-17T05:06:39;11.60;;;7.38;;
32080;SDS011;18593;51.426;7.030;2022-10-17T05:09:27;11.98;;;6.65;;
32080;SDS011;18593;51.426;7.030;2022-10-17T05:11:54;13.20;;;6.03;;
32080;SDS011;18593;51.426;7.030;2022-10-17T05:14:21;12.55;;;5.97;;
32080;SDS011;18593;51.426;7.030;2022-10-17T05:16:48;10.50;;;5.75;;
32080;SDS011;18593;51.426;7.030;2022-10-17T05:19:15;11.35;;;5.85;;
32080;SDS011;18593;51.426;7.030;2022-10-17T05:21:47;11.38;;;5.85;;
32080;SDS011;18593;51.426;7.030;2022-10-17T05:24:14;13.02;;;5.85;;
32080;SDS011;18593;51.426;7.030;2022-10-17T05:26:41;9.35;;;5.90;;
32080;SDS011;18593;51.426;7.030;2022-10-17T05:29:08;10.85;;;5.75;;
32080;SDS011;18593;51.426;7.030;2022-10-17T05:31:39;9.50;;;5.97;;
32080;SDS011;18593;51.426;7.030;2022-10-17T05:34:07;9.90;;;5.93;;
32080;SDS011;18593;51.426;7.030;2022-10-17T05:36:33;8.65;;;5.78;;
32080;SDS011;18593;51.426;7.030;2022-10-17T05:39:04;14.27;;;6.70;;
32080;SDS011;18593;51.426;7.030;2022-10-17T05:41:32;15.13;;;6.70;;
32080;SDS011;18593;51.426;7.030;2022-10-17T05:43:59;13.07;;;6.95;;
32080;SDS011;18593;51.426;7.030;2022-10-17T05:46:36;11.80;;;6.18;;
32080;SDS011;18593;51.426;7.030;2022-10-17T05:49:03;13.93;;;5.80;;
32080;SDS011;18593;51.426;7.030;2022-10-17T05:51:32;10.95;;;6.00;;
32080;SDS011;18593;51.426;7.030;2022-10-17T05:54:03;11.07;;;5.83;;
32080;SDS011;18593;51.426;7.030;2022-10-17T05:56:33;14.07;;;5.93;;
32080;SDS011;18593;51.426;7.030;2022-10-17T05:59:00;10.60;;;6.32;;
32080;SDS011;18593;51.426;7.030;2022-10-17T06:01:46;9.38;;;6.20;;
32080;SDS011;18593;51.426;7.030;2022-10-17T06:04:13;8.43;;;6.03;;
32080;SDS011;18593;51.426;7.030;2022-10-17T06:06:40;10.43;;;5.78;;
32080;SDS011;18593;51.426;7.030;2022-10-17T06:09:09;15.52;;;5.93;;
32080;SDS011;18593;51.426;7.030;2022-10-17T06:11:40;11.60;;;6.47;;
32080;SDS011;18593;51.426;7.030;2022-10-17T06:14:08;15.05;;;6.90;;
32080;SDS011;18593;51.426;7.030;2022-10-17T06:16:37;16.38;;;6.78;;
32080;SDS011;18593;51.426;7.030;2022-10-17T06:19:04;8.52;;;6.05;;
32080;SDS011;18593;51.426;7.030;2022-10-17T06:21:31;10.25;;;6.57;;
32080;SDS011;18593;51.426;7.030;2022-10-17T06:24:09;12.05;;;6.95;;
32080;SDS011;18593;51.426;7.030;2022-10-17T06:26:39;12.05;;;6.68;;
32080;SDS011;18593;51.426;7.030;2022-10-17T06:29:08;12.88;;;6.68;;
32080;SDS011;18593;51.426;7.030;2022-10-17T06:31:49;11.05;;;6.50;;
32080;SDS011;18593;51.426;7.030;2022-10-17T06:34:17;13.13;;;5.30;;
32080;SDS011;18593;51.426;7.030;2022-10-17T06:36:45;11.90;;;6.07;;
32080;SDS011;18593;51.426;7.030;2022-10-17T06:39:13;9.77;;;6.90;;
32080;SDS011;18593;51.426;7.030;2022-10-17T06:42:03;10.75;;;6.75;;
32080;SDS011;18593;51.426;7.030;2022-10-17T06:44:45;9.13;;;5.97;;
32080;SDS011;18593;51.426;7.030;2022-10-17T06:47:32;10.55;;;5.90;;
32080;SDS011;18593;51.426;7.030;2022-10-17T06:50:05;9.60;;;5.97;;
32080;SDS011;18593;51.426;7.030;2022-10-17T06:52:42;10.95;;;5.78;;
32080;SDS011;18593;51.426;7.030;2022-10-17T06:55:33;7.10;;;4.53;;
32080;SDS011;18593;51.426;7.030;2022-10-17T06:58:18;10.90;;;5.43;;
32080;SDS011;18593;51.426;7.030;2022-10-17T07:01:04;9.55;;;5.75;;
32080;SDS011;18593;51.426;7.030;2022-10-17T07:03:33;12.48;;;4.93;;
32080;SDS011;18593;51.426;7.030;2022-10-17T07:06:00;14.13;;;5.15;;
32080;SDS011;18593;51.426;7.030;2022-10-17T07:08:27;9.45;;;5.50;;
32080;SDS011;18593;51.426;7.030;2022-10-17T07:10:56;10.45;;;5.15;;
32080;SDS011;18593;51.426;7.030;2022-10-17T07:13:25;15.18;;;5.72;;
32080;SDS011;18593;51.426;7.030;2022-10-17T07:15:51;9.77;;;4.50;;
32080;SDS011;18593;51.426;7.030;2022-10-17T07:18:22;9.60;;;5.00;;
32080;SDS011;18593;51.426;7.030;2022-10-17T07:20:52;10.48;;;5.80;;
32080;SDS011;18593;51.426;7.030;2022-10-17T07:23:19;10.25;;;5.90;;
32080;SDS011;18593;51.426;7.030;2022-10-17T07:25:46;14.40;;;5.15;;
32080;SDS011;18593;51.426;7.030;2022-10-17T07:28:16;12.10;;;5.32;;
32080;SDS011;18593;51.426;7.030;2022-10-17T07:30:44;8.68;;;4.88;;
32080;SDS011;18593;51.426;7.030;2022-10-17T07:33:11;7.45;;;4.60;;
32080;SDS011;18593;51.426;7.030;2022-10-17T07:35:38;16.23;;;5.25;;
32080;SDS011;18593;51.426;7.030;2022-10-17T07:38:06;10.40;;;5.10;;
32080;SDS011;18593;51.426;7.030;2022-10-17T07:40:33;10.18;;;4.95;;
32080;SDS011;18593;51.426;7.030;2022-10-17T07:43:00;7.30;;;4.93;;
32080;SDS011;18593;51.426;7.030;2022-10-17T07:45:29;11.20;;;4.93;;
32080;SDS011;18593;51.426;7.030;2022-10-17T07:47:56;9.45;;;4.65;;
32080;SDS011;18593;51.426;7.030;2022-10-17T07:50:23;9.07;;;4.68;;
32080;SDS011;18593;51.426;7.030;2022-10-17T07:52:50;11.25;;;5.40;;
32080;SDS011;18593;51.426;7.030;2022-10-17T07:55:17;9.25;;;5.07;;
32080;SDS011;18593;51.426;7.030;2022-10-17T07:57:44;8.82;;;5.03;;
32080;SDS011;18593;51.426;7.030;2022-10-17T08:00:14;10.80;;;4.97;;
32080;SDS011;18593;51.426;7.030;2022-10-17T08:02:42;10.82;;;5.13;;
32080;SDS011;18593;51.426;7.030;2022-10-17T08:05:09;9.25;;;4.93;;
32080;SDS011;18593;51.426;7.030;2022-10-17T08:07:36;9.35;;;5.38;;
32080;SDS011;18593;51.426;7.030;2022-10-17T08:10:03;12.43;;;4.85;;
32080;SDS011;18593;51.426;7.030;2022-10-17T08:12:30;10.75;;;5.57;;
32080;SDS011;18593;51.426;7.030;2022-10-17T08:14:58;10.55;;;4.97;;
32080;SDS011;18593;51.426;7.030;2022-10-17T08:17:25;9.98;;;4.80;;
32080;SDS011;18593;51.426;7.030;2022-10-17T08:19:53;10.80;;;5.45;;
32080;SDS011;18593;51.426;7.030;2022-10-17T08:22:20;8.75;;;4.50;;
32080;SDS011;18593;51.426;7.030;2022-10-17T08:24:47;11.35;;;4.40;;
32080;SDS011;18593;51.426;7.030;2022-10-17T08:27:16;9.27;;;4.53;;
32080;SDS011;18593;51.426;7.030;2022-10-17T08:29:48;8.45;;;4.90;;
32080;SDS011;18593;51.426;7.030;2022-10-17T08:32:17;9.25;;;4.85;;
32080;SDS011;18593;51.426;7.030;2022-10-17T08:34:44;6.88;;;4.70;;
32080;SDS011;18593;51.426;7.030;2022-10-17T08:37:12;10.77;;;4.75;;
32080;SDS011;18593;51.426;7.030;2022-10-17T08:39:39;10.63;;;4.75;;
32080;SDS011;18593;51.426;7.030;2022-10-17T08:42:19;9.77;;;4.13;;
32080;SDS011;18593;51.426;7.030;2022-10-17T08:44:58;9.07;;;4.63;;
32080;SDS011;18593;51.426;7.030;2022-10-17T08:47:33;9.00;;;3.92;;
32080;SDS011;18593;51.426;7.030;2022-10-17T08:50:02;7.85;;;5.00;;
32080;SDS011;18593;51.426;7.030;2022-10-17T08:52:34;7.45;;;4.85;;
32080;SDS011;18593;51.426;7.030;2022-10-17T08:55:04;10.65;;;4.22;;
32080;SDS011;18593;51.426;7.030;2022-10-17T08:57:40;8.25;;;4.45;;
32080;SDS011;18593;51.426;7.030;2022-10-17T09:00:11;9.77;;;5.13;;
32080;SDS011;18593;51.426;7.030;2022-10-17T09:02:42;9.68;;;4.53;;
32080;SDS011;18593;51.426;7.030;2022-10-17T09:05:30;11.68;;;4.43;;
32080;SDS011;18593;51.426;7.030;2022-10-17T09:08:08;7.93;;;4.22;;
32080;SDS011;18593;51.426;7.030;2022-10-17T09:10:43;8.55;;;4.05;;
32080;SDS011;18593;51.426;7.030;2022-10-17T09:13:18;11.32;;;4.85;;
32080;SDS011;18593;51.426;7.030;2022-10-17T09:16:10;7.93;;;4.22;;
32080;SDS011;18593;51.426;7.030;2022-10-17T09:18:46;9.15;;;5.07;;
32080;SDS011;18593;51.426;7.030;2022-10-17T09:21:22;11.43;;;4.60;;
32080;SDS011;18593;51.426;7.030;2022-10-17T09:23:54;8.73;;;4.32;;
32080;SDS011;18593;51.426;7.030;2022-10-17T09:26:23;15.15;;;4.20;;
32080;SDS011;18593;51.426;7.030;2022-10-17T09:28:50;9.52;;;4.35;;
32080;SDS011;18593;51.426;7.030;2022-10-17T09:31:19;8.50;;;4.50;;
32080;SDS011;18593;51.426;7.030;2022-10-17T09:33:48;8.60;;;4.38;;
32080;SDS011;18593;51.426;7.030;2022-10-17T09:36:16;11.68;;;4.15;;
32080;SDS011;18593;51.426;7.030;2022-10-17T09:38:47;10.85;;;3.92;;
32080;SDS011;18593;51.426;7.030;2022-10-17T09:41:18;11.85;;;4.00;;
32080;SDS011;18593;51.426;7.030;2022-10-17T09:43:46;13.38;;;4.40;;
32080;SDS011;18593;51.426;7.030;2022-10-17T09:46:16;9.38;;;4.60;;
32080;SDS011;18593;51.426;7.030;2022-10-17T09:48:46;9.05;;;4.18;;
32080;SDS011;18593;51.426;7.030;2022-10-17T09:51:17;12.95;;;4.32;;
32080;SDS011;18593;51.426;7.030;2022-10-17T09:53:44;14.18;;;4.28;;
32080;SDS011;18593;51.426;7.030;2022-10-17T09:56:13;11.82;;;4.93;;
32080;SDS011;18593;51.426;7.030;2022-10-17T09:58:44;11.02;;;4.70;;
32080;SDS011;18593;51.426;7.030;2022-10-17T10:01:16;7.85;;;4.30;;
32080;SDS011;18593;51.426;7.030;2022-10-17T10:03:45;9.80;;;4.25;;
32080;SDS011;18593;51.426;7.030;2022-10-17T10:06:13;8.45;;;4.43;;
32080;SDS011;18593;51.426;7.030;2022-10-17T10:08:48;8.27;;;4.30;;
32080;SDS011;18593;51.426;7.030;2022-10-17T10:11:16;11.18;;;4.80;;
32080;SDS011;18593;51.426;7.030;2022-10-17T10:13:46;12.65;;;4.90;;
32080;SDS011;18593;51.426;7.030;2022-10-17T10:16:18;11.65;;;4.10;;
32080;SDS011;18593;51.426;7.030;2022-10-17T10:18:48;13.88;;;4.90;;
32080;SDS011;18593;51.426;7.030;2022-10-17T10:21:16;10.85;;;4.93;;
32080;SDS011;18593;51.426;7.030;2022-10-17T10:23:44;12.00;;;5.00;;
32080;SDS011;18593;51.426;7.030;2022-10-17T10:26:31;12.57;;;5.05;;
32080;SDS011;18593;51.426;7.030;2022-10-17T10:31:31;12.50;;;4.47;;
32080;SDS011;18593;51.426;7.030;2022-10-17T10:34:00;8.05;;;4.22;;
32080;SDS011;18593;51.426;7.030;2022-10-17T10:36:48;11.68;;;5.40;;
32080;SDS011;18593;51.426;7.030;2022-10-17T10:39:27;11.30;;;4.78;;
32080;SDS011;18593;51.426;7.030;2022-10-17T10:42:07;13.32;;;4.93;;
32080;SDS011;18593;51.426;7.030;2022-10-17T10:44:44;8.27;;;4.68;;
32080;SDS011;18593;51.426;7.030;2022-10-17T10:47:15;8.93;;;4.35;;
32080;SDS011;18593;51.426;7.030;2022-10-17T10:49:49;14.18;;;5.10;;
32080;SDS011;18593;51.426;7.030;2022-10-17T10:52:19;9.35;;;4.85;;
32080;SDS011;18593;51.426;7.030;2022-10-17T10:54:53;11.23;;;4.50;;
32080;SDS011;18593;51.426;7.030;2022-10-17T10:57:23;11.38;;;4.47;;
32080;SDS011;18593;51.426;7.030;2022-10-17T10:59:55;11.27;;;5.00;;
32080;SDS011;18593;51.426;7.030;2022-10-17T11:02:26;8.95;;;4.95;;
32080;SDS011;18593;51.426;7.030;2022-10-17T11:04:57;10.32;;;4.90;;
32080;SDS011;18593;51.426;7.030;2022-10-17T11:07:28;7.72;;;4.78;;
32080;SDS011;18593;51.426;7.030;2022-10-17T11:09:58;10.00;;;5.10;;
32080;SDS011;18593;51.426;7.030;2022-10-17T11:12:29;13.88;;;5.10;;
32080;SDS011;18593;51.426;7.030;2022-10-17T11:15:02;11.35;;;5.35;;
32080;SDS011;18593;51.426;7.030;2022-10-17T11:17:35;12.20;;;5.32;;
32080;SDS011;18593;51.426;7.030;2022-10-17T11:22:37;13.95;;;5.68;;
32080;SDS011;18593;51.426;7.030;2022-10-17T11:25:13;8.30;;;5.38;;
32080;SDS011;18593;51.426;7.030;2022-10-17T11:27:45;10.05;;;4.68;;
32080;SDS011;18593;51.426;7.030;2022-10-17T11:30:13;7.72;;;4.88;;
32080;SDS011;18593;51.426;7.030;2022-10-17T11:32:41;8.85;;;5.18;;
32080;SDS011;18593;51.426;7.030;2022-10-17T11:35:14;9.10;;;5.25;;
32080;SDS011;18593;51.426;7.030;2022-10-17T11:37:45;11.05;;;4.90;;
32080;SDS011;18593;51.426;7.030;2022-10-17T11:40:17;8.77;;;4.85;;
32080;SDS011;18593;51.426;7.030;2022-10-17T11:42:49;10.40;;;5.35;;
32080;SDS011;18593;51.426;7.030;2022-10-17T11:45:20;8.90;;;5.00;;
32080;SDS011;18593;51.426;7.030;2022-10-17T11:47:49;8.90;;;5.00;;
32080;SDS011;18593;51.426;7.030;2022-10-17T11:50:19;7.95;;;4.68;;
32080;SDS011;18593;51.426;7.030;2022-10-17T11:52:49;10.60;;;5.13;;
32080;SDS011;18593;51.426;7.030;2022-10-17T11:55:18;10.55;;;5.15;;
32080;SDS011;18593;51.426;7.030;2022-10-17T11:57:57;12.38;;;4.95;;
32080;SDS011;18593;51.426;7.030;2022-10-17T12:00:35;9.77;;;5.38;;
32080;SDS011;18593;51.426;7.030;2022-10-17T12:03:16;11.23;;;5.05;;
32080;SDS011;18593;51.426;7.030;2022-10-17T12:05:58;14.93;;;6.32;;
32080;SDS011;18593;51.426;7.030;2022-10-17T12:08:29;13.35;;;6.47;;
32080;SDS011;18593;51.426;7.030;2022-10-17T12:11:05;12.05;;;5.93;;
32080;SDS011;18593;51.426;7.030;2022-10-17T12:13:51;20.08;;;5.82;;
32080;SDS011;18593;51.426;7.030;2022-10-17T12:16:36;12.98;;;5.97;;
32080;SDS011;18593;51.426;7.030;2022-10-17T12:19:15;9.35;;;5.63;;
32080;SDS011;18593;51.426;7.030;2022-10-17T12:21:57;12.82;;;5.72;;
32080;SDS011;18593;51.426;7.030;2022-10-17T12:24:36;10.45;;;5.90;;
32080;SDS011;18593;51.426;7.030;2022-10-17T12:33:02;12.18;;;5.80;;
32080;SDS011;18593;51.426;7.030;2022-10-17T12:35:31;16.42;;;5.65;;
32080;SDS011;18593;51.426;7.030;2022-10-17T12:40:53;14.10;;;6.45;;
32080;SDS011;18593;51.426;7.030;2022-10-17T12:54:57;11.00;;;6.40;;
32080;SDS011;18593;51.426;7.030;2022-10-17T12:57:29;12.18;;;6.43;;
32080;SDS011;18593;51.426;7.030;2022-10-17T13:00:00;13.48;;;6.53;;
32080;SDS011;18593;51.426;7.030;2022-10-17T13:02:29;16.40;;;6.80;;
32080;SDS011;18593;51.426;7.030;2022-10-17T13:05:02;11.00;;;6.32;;
32080;SDS011;18593;51.426;7.030;2022-10-17T13:07:32;14.00;;;6.38;;
32080;SDS011;18593;51.426;7.030;2022-10-17T13:10:00;13.27;;;6.80;;
32080;SDS011;18593;51.426;7.030;2022-10-17T13:12:29;15.82;;;5.97;;
32080;SDS011;18593;51.426;7.030;2022-10-17T13:14:58;13.88;;;6.05;;
32080;SDS011;18593;51.426;7.030;2022-10-17T13:17:26;13.65;;;7.22;;
32080;SDS011;18593;51.426;7.030;2022-10-17T13:19:55;12.20;;;6.40;;
32080;SDS011;18593;51.426;7.030;2022-10-17T13:22:25;15.52;;;6.60;;
32080;SDS011;18593;51.426;7.030;2022-10-17T13:25:03;13.50;;;6.18;;
32080;SDS011;18593;51.426;7.030;2022-10-17T13:27:32;12.73;;;6.40;;
32080;SDS011;18593;51.426;7.030;2022-10-17T13:30:01;16.67;;;6.75;;
32080;SDS011;18593;51.426;7.030;2022-10-17T13:32:42;12.70;;;7.25;;
32080;SDS011;18593;51.426;7.030;2022-10-17T13:35:10;14.00;;;6.25;;
32080;SDS011;18593;51.426;7.030;2022-10-17T13:37:39;10.50;;;6.68;;
32080;SDS011;18593;51.426;7.030;2022-10-17T13:40:13;10.88;;;6.35;;
32080;SDS011;18593;51.426;7.030;2022-10-17T13:42:41;11.57;;;6.40;;
32080;SDS011;18593;51.426;7.030;2022-10-17T13:45:10;10.68;;;6.35;;
32080;SDS011;18593;51.426;7.030;2022-10-17T13:47:42;9.38;;;6.13;;
32080;SDS011;18593;51.426;7.030;2022-10-17T13:50:13;15.90;;;6.80;;
32080;SDS011;18593;51.426;7.030;2022-10-17T13:52:46;11.73;;;6.30;;
32080;SDS011;18593;51.426;7.030;2022-10-17T13:55:14;15.07;;;6.93;;
32080;SDS011;18593;51.426;7.030;2022-10-17T13:57:44;13.85;;;6.00;;
32080;SDS011;18593;51.426;7.030;2022-10-17T14:00:14;9.80;;;5.70;;
32080;SDS011;18593;51.426;7.030;2022-10-17T14:02:44;14.43;;;6.10;;
32080;SDS011;18593;51.426;7.030;2022-10-17T14:05:13;13.38;;;6.63;;
32080;SDS011;18593;51.426;7.030;2022-10-17T14:07:43;11.65;;;5.90;;
32080;SDS011;18593;51.426;7.030;2022-10-17T14:10:18;11.90;;;5.90;;
32080;SDS011;18593;51.426;7.030;2022-10-17T14:12:47;12.88;;;6.32;;
32080;SDS011;18593;51.426;7.030;2022-10-17T14:15:14;12.73;;;5.70;;
32080;SDS011;18593;51.426;7.030;2022-10-17T14:17:42;15.65;;;6.40;;
32080;SDS011;18593;51.426;7.030;2022-10-17T14:20:15;15.13;;;6.10;;
32080;SDS011;18593;51.426;7.030;2022-10-17T14:22:43;12.60;;;6.03;;
32080;SDS011;18593;51.426;7.030;2022-10-17T14:28:07;15.20;;;6.13;;
32080;SDS011;18593;51.426;7.030;2022-10-17T14:30:40;11.73;;;6.22;;
32080;SDS011;18593;51.426;7.030;2022-10-17T14:33:11;14.60;;;5.63;;
32080;SDS011;18593;51.426;7.030;2022-10-17T14:35:47;12.75;;;5.70;;
32080;SDS011;18593;51.426;7.030;2022-10-17T14:38:15;13.57;;;5.78;;
32080;SDS011;18593;51.426;7.030;2022-10-17T14:40:48;9.38;;;5.55;;
32080;SDS011;18593;51.426;7.030;2022-10-17T14:43:19;11.77;;;5.70;;
32080;SDS011;18593;51.426;7.030;2022-10-17T14:45:47;12.45;;;5.13;;
32080;SDS011;18593;51.426;7.030;2022-10-17T14:48:15;12.82;;;5.53;;
32080;SDS011;18593;51.426;7.030;2022-10-17T14:53:32;11.57;;;4.95;;
32080;SDS011;18593;51.426;7.030;2022-10-17T14:56:00;12.73;;;5.80;;
32080;SDS011;18593;51.426;7.030;2022-10-17T14:58:31;12.15;;;5.68;;
32080;SDS011;18593;51.426;7.030;2022-10-17T15:00:59;12.40;;;5.35;;
32080;SDS011;18593;51.426;7.030;2022-10-17T15:03:27;10.65;;;5.10;;
32080;SDS011;18593;51.426;7.030;2022-10-17T15:05:54;11.73;;;5.85;;
32080;SDS011;18593;51.426;7.030;2022-10-17T15:08:21;13.23;;;4.88;;
32080;SDS011;18593;51.426;7.030;2022-10-17T15:10:49;12.60;;;5.03;;
32080;SDS011;18593;51.426;7.030;2022-10-17T15:13:17;10.30;;;5.05;;
32080;SDS011;18593;51.426;7.030;2022-10-17T15:15:45;12.63;;;5.45;;
32080;SDS011;18593;51.426;7.030;2022-10-17T15:18:15;16.73;;;5.47;;
32080;SDS011;18593;51.426;7.030;2022-10-17T15:20:42;15.43;;;5.18;;
32080;SDS011;18593;51.426;7.030;2022-10-17T15:23:09;11.38;;;4.93;;
32080;SDS011;18593;51.426;7.030;2022-10-17T15:25:36;13.45;;;5.47;;
32080;SDS011;18593;51.426;7.030;2022-10-17T15:28:03;9.40;;;4.55;;
32080;SDS011;18593;51.426;7.030;2022-10-17T15:30:33;13.82;;;4.93;;
32080;SDS011;18593;51.426;7.030;2022-10-17T15:33:02;12.90;;;5.55;;
32080;SDS011;18593;51.426;7.030;2022-10-17T15:35:29;13.70;;;5.70;;